EGYP

Mount Pleasant Airport

Mount Pleasant, Falkland Islands
METAR EGYP 160450Z 28016KT CAVOK 13/08 Q0978 BLU
Observed Flight Rules
Dec-16 @ 04:50 UTC (an hour ago) Visual Flight Rules
Wind Visibility Clouds
280° at 16 knots 10,000+ meters
  • Clear skies
Temperatures Readings
Current 13°C / 55°F
Dewpoint 8°C / 46°F
Humidity 72%
Altimeter 28.88" Hg
Pressure 978 hPa
Elevation 74
METAR EGYP 160450Z 28016KT CAVOK 13/08 Q0978 BLU
Observed Flight Rules
Dec-16 @ 04:50 UTC
(an hour ago)
VFR
Wind Visibility
280° at 16 knots 10,000+ meters
Clouds
  • Clear skies
Temperature Dewpoint
13°C / 55°F 8°C / 46°F
Humidity Altimeter Pressure
72% 28.88" Hg 978 hPa